sensor_id;sensor_type;location;lat;lon;timestamp;P1;durP1;ratioP1;P2;durP2;ratioP2
56399;SDS011;42298;53.638;9.876;2023-05-17T00:00:50;18.17;;;5.00;;
56399;SDS011;42298;53.638;9.876;2023-05-17T00:03:15;22.67;;;5.43;;
56399;SDS011;42298;53.638;9.876;2023-05-17T00:05:41;20.77;;;5.17;;
56399;SDS011;42298;53.638;9.876;2023-05-17T00:08:06;21.63;;;5.20;;
56399;SDS011;42298;53.638;9.876;2023-05-17T00:10:31;17.03;;;4.43;;
56399;SDS011;42298;53.638;9.876;2023-05-17T00:12:57;14.93;;;4.40;;
56399;SDS011;42298;53.638;9.876;2023-05-17T00:15:22;23.07;;;5.60;;
56399;SDS011;42298;53.638;9.876;2023-05-17T00:17:47;18.33;;;5.70;;
56399;SDS011;42298;53.638;9.876;2023-05-17T00:20:12;22.10;;;5.43;;
56399;SDS011;42298;53.638;9.876;2023-05-17T00:22:38;20.50;;;5.43;;
56399;SDS011;42298;53.638;9.876;2023-05-17T00:25:04;21.20;;;5.17;;
56399;SDS011;42298;53.638;9.876;2023-05-17T00:27:30;15.77;;;4.53;;
56399;SDS011;42298;53.638;9.876;2023-05-17T00:29:55;23.57;;;6.17;;
56399;SDS011;42298;53.638;9.876;2023-05-17T00:32:21;16.03;;;4.80;;
56399;SDS011;42298;53.638;9.876;2023-05-17T00:34:46;20.20;;;5.27;;
56399;SDS011;42298;53.638;9.876;2023-05-17T00:37:12;22.40;;;5.73;;
56399;SDS011;42298;53.638;9.876;2023-05-17T00:39:37;13.40;;;4.63;;
56399;SDS011;42298;53.638;9.876;2023-05-17T00:42:02;19.53;;;5.40;;
56399;SDS011;42298;53.638;9.876;2023-05-17T00:44:28;22.77;;;4.73;;
56399;SDS011;42298;53.638;9.876;2023-05-17T00:46:55;20.57;;;4.77;;
56399;SDS011;42298;53.638;9.876;2023-05-17T00:49:21;15.93;;;4.53;;
56399;SDS011;42298;53.638;9.876;2023-05-17T00:51:47;22.63;;;5.30;;
56399;SDS011;42298;53.638;9.876;2023-05-17T00:54:12;24.13;;;5.73;;
56399;SDS011;42298;53.638;9.876;2023-05-17T00:56:39;18.17;;;4.80;;
56399;SDS011;42298;53.638;9.876;2023-05-17T00:59:05;21.40;;;5.20;;
56399;SDS011;42298;53.638;9.876;2023-05-17T01:01:30;25.60;;;5.03;;
56399;SDS011;42298;53.638;9.876;2023-05-17T01:03:56;20.43;;;5.23;;
56399;SDS011;42298;53.638;9.876;2023-05-17T01:06:22;23.13;;;5.03;;
56399;SDS011;42298;53.638;9.876;2023-05-17T01:08:47;19.97;;;4.77;;
56399;SDS011;42298;53.638;9.876;2023-05-17T01:11:17;21.20;;;5.30;;
56399;SDS011;42298;53.638;9.876;2023-05-17T01:16:54;19.47;;;4.60;;
56399;SDS011;42298;53.638;9.876;2023-05-17T01:22:16;21.23;;;4.90;;
56399;SDS011;42298;53.638;9.876;2023-05-17T01:25:09;27.83;;;5.53;;
56399;SDS011;42298;53.638;9.876;2023-05-17T01:27:47;18.70;;;4.43;;
56399;SDS011;42298;53.638;9.876;2023-05-17T01:30:14;17.67;;;3.80;;
56399;SDS011;42298;53.638;9.876;2023-05-17T01:32:42;16.60;;;4.07;;
56399;SDS011;42298;53.638;9.876;2023-05-17T01:35:08;14.83;;;3.50;;
56399;SDS011;42298;53.638;9.876;2023-05-17T01:37:35;15.10;;;3.53;;
56399;SDS011;42298;53.638;9.876;2023-05-17T01:40:01;14.50;;;4.20;;
56399;SDS011;42298;53.638;9.876;2023-05-17T01:42:31;15.53;;;3.77;;
56399;SDS011;42298;53.638;9.876;2023-05-17T01:45:16;16.87;;;3.67;;
56399;SDS011;42298;53.638;9.876;2023-05-17T01:50:50;15.97;;;4.33;;
56399;SDS011;42298;53.638;9.876;2023-05-17T01:53:27;15.87;;;3.20;;
56399;SDS011;42298;53.638;9.876;2023-05-17T01:56:06;15.67;;;3.60;;
56399;SDS011;42298;53.638;9.876;2023-05-17T01:58:47;14.37;;;3.67;;
56399;SDS011;42298;53.638;9.876;2023-05-17T02:01:15;17.17;;;4.00;;
56399;SDS011;42298;53.638;9.876;2023-05-17T02:03:43;14.67;;;3.10;;
56399;SDS011;42298;53.638;9.876;2023-05-17T02:06:11;19.67;;;3.90;;
56399;SDS011;42298;53.638;9.876;2023-05-17T02:08:36;22.47;;;4.00;;
56399;SDS011;42298;53.638;9.876;2023-05-17T02:11:02;14.90;;;3.63;;
56399;SDS011;42298;53.638;9.876;2023-05-17T02:13:27;16.33;;;3.53;;
56399;SDS011;42298;53.638;9.876;2023-05-17T02:16:00;16.10;;;3.87;;
56399;SDS011;42298;53.638;9.876;2023-05-17T02:18:26;14.50;;;3.20;;
56399;SDS011;42298;53.638;9.876;2023-05-17T02:20:51;13.30;;;3.13;;
56399;SDS011;42298;53.638;9.876;2023-05-17T02:23:17;21.57;;;3.97;;
56399;SDS011;42298;53.638;9.876;2023-05-17T02:25:42;15.53;;;3.80;;
56399;SDS011;42298;53.638;9.876;2023-05-17T02:28:08;14.03;;;3.30;;
56399;SDS011;42298;53.638;9.876;2023-05-17T02:30:33;11.30;;;3.27;;
56399;SDS011;42298;53.638;9.876;2023-05-17T02:32:58;16.67;;;3.87;;
56399;SDS011;42298;53.638;9.876;2023-05-17T02:35:24;17.43;;;3.63;;
56399;SDS011;42298;53.638;9.876;2023-05-17T02:37:49;16.00;;;3.93;;
56399;SDS011;42298;53.638;9.876;2023-05-17T02:40:14;12.37;;;2.93;;
56399;SDS011;42298;53.638;9.876;2023-05-17T02:42:40;15.00;;;3.33;;
56399;SDS011;42298;53.638;9.876;2023-05-17T02:45:06;13.00;;;3.00;;
56399;SDS011;42298;53.638;9.876;2023-05-17T02:47:31;10.13;;;3.20;;
56399;SDS011;42298;53.638;9.876;2023-05-17T02:49:57;13.53;;;3.10;;
56399;SDS011;42298;53.638;9.876;2023-05-17T02:52:22;15.23;;;3.50;;
56399;SDS011;42298;53.638;9.876;2023-05-17T02:54:47;18.13;;;3.70;;
56399;SDS011;42298;53.638;9.876;2023-05-17T02:57:12;16.23;;;2.80;;
56399;SDS011;42298;53.638;9.876;2023-05-17T02:59:38;14.03;;;3.53;;
56399;SDS011;42298;53.638;9.876;2023-05-17T03:02:03;14.17;;;3.40;;
56399;SDS011;42298;53.638;9.876;2023-05-17T03:04:29;14.17;;;3.77;;
56399;SDS011;42298;53.638;9.876;2023-05-17T03:06:54;19.40;;;3.83;;
56399;SDS011;42298;53.638;9.876;2023-05-17T03:09:20;17.30;;;3.57;;
56399;SDS011;42298;53.638;9.876;2023-05-17T03:11:45;12.97;;;3.33;;
56399;SDS011;42298;53.638;9.876;2023-05-17T03:14:11;15.33;;;2.93;;
56399;SDS011;42298;53.638;9.876;2023-05-17T03:16:36;10.93;;;3.40;;
56399;SDS011;42298;53.638;9.876;2023-05-17T03:19:01;14.27;;;3.37;;
56399;SDS011;42298;53.638;9.876;2023-05-17T03:21:27;10.27;;;2.63;;
56399;SDS011;42298;53.638;9.876;2023-05-17T03:23:52;14.17;;;3.53;;
56399;SDS011;42298;53.638;9.876;2023-05-17T03:26:17;14.10;;;3.10;;
56399;SDS011;42298;53.638;9.876;2023-05-17T03:28:46;13.40;;;3.20;;
56399;SDS011;42298;53.638;9.876;2023-05-17T03:31:12;13.87;;;2.90;;
56399;SDS011;42298;53.638;9.876;2023-05-17T03:33:37;15.23;;;3.47;;
56399;SDS011;42298;53.638;9.876;2023-05-17T03:36:03;16.10;;;4.13;;
56399;SDS011;42298;53.638;9.876;2023-05-17T03:38:28;11.63;;;2.90;;
56399;SDS011;42298;53.638;9.876;2023-05-17T03:40:53;13.57;;;3.10;;
56399;SDS011;42298;53.638;9.876;2023-05-17T03:43:20;16.00;;;3.50;;
56399;SDS011;42298;53.638;9.876;2023-05-17T03:45:45;11.30;;;3.03;;
56399;SDS011;42298;53.638;9.876;2023-05-17T03:48:11;16.23;;;3.50;;
56399;SDS011;42298;53.638;9.876;2023-05-17T03:50:38;15.57;;;3.57;;
56399;SDS011;42298;53.638;9.876;2023-05-17T03:53:04;17.10;;;3.90;;
56399;SDS011;42298;53.638;9.876;2023-05-17T03:55:30;14.63;;;3.73;;
56399;SDS011;42298;53.638;9.876;2023-05-17T03:57:55;18.57;;;3.73;;
56399;SDS011;42298;53.638;9.876;2023-05-17T04:00:20;16.13;;;3.53;;
56399;SDS011;42298;53.638;9.876;2023-05-17T04:02:46;15.43;;;3.43;;
56399;SDS011;42298;53.638;9.876;2023-05-17T04:05:12;14.50;;;3.23;;
56399;SDS011;42298;53.638;9.876;2023-05-17T04:07:38;18.50;;;3.80;;
56399;SDS011;42298;53.638;9.876;2023-05-17T04:10:03;14.00;;;3.50;;
56399;SDS011;42298;53.638;9.876;2023-05-17T04:12:29;17.83;;;3.77;;
56399;SDS011;42298;53.638;9.876;2023-05-17T04:14:55;21.27;;;4.13;;
56399;SDS011;42298;53.638;9.876;2023-05-17T04:17:20;14.07;;;3.47;;
56399;SDS011;42298;53.638;9.876;2023-05-17T04:19:46;17.27;;;4.00;;
56399;SDS011;42298;53.638;9.876;2023-05-17T04:22:12;15.30;;;4.00;;
56399;SDS011;42298;53.638;9.876;2023-05-17T04:24:37;14.60;;;3.77;;
56399;SDS011;42298;53.638;9.876;2023-05-17T04:27:03;18.27;;;4.23;;
56399;SDS011;42298;53.638;9.876;2023-05-17T04:29:29;15.07;;;3.73;;
56399;SDS011;42298;53.638;9.876;2023-05-17T04:31:54;19.03;;;3.93;;
56399;SDS011;42298;53.638;9.876;2023-05-17T04:34:21;15.37;;;4.23;;
56399;SDS011;42298;53.638;9.876;2023-05-17T04:36:50;13.73;;;3.30;;
56399;SDS011;42298;53.638;9.876;2023-05-17T04:39:18;22.47;;;4.73;;
56399;SDS011;42298;53.638;9.876;2023-05-17T04:41:44;19.10;;;3.80;;
56399;SDS011;42298;53.638;9.876;2023-05-17T04:44:09;15.63;;;3.37;;
56399;SDS011;42298;53.638;9.876;2023-05-17T04:46:35;16.10;;;3.70;;
56399;SDS011;42298;53.638;9.876;2023-05-17T04:49:01;13.57;;;3.63;;
56399;SDS011;42298;53.638;9.876;2023-05-17T04:51:27;16.43;;;3.90;;
56399;SDS011;42298;53.638;9.876;2023-05-17T04:53:56;17.07;;;3.83;;
56399;SDS011;42298;53.638;9.876;2023-05-17T04:56:24;21.83;;;4.70;;
56399;SDS011;42298;53.638;9.876;2023-05-17T04:58:50;16.87;;;3.80;;
56399;SDS011;42298;53.638;9.876;2023-05-17T05:01:15;24.17;;;4.87;;
56399;SDS011;42298;53.638;9.876;2023-05-17T05:03:41;14.80;;;3.90;;
56399;SDS011;42298;53.638;9.876;2023-05-17T05:06:06;14.37;;;3.63;;
56399;SDS011;42298;53.638;9.876;2023-05-17T05:08:32;16.83;;;4.10;;
56399;SDS011;42298;53.638;9.876;2023-05-17T05:10:57;21.60;;;4.33;;
56399;SDS011;42298;53.638;9.876;2023-05-17T05:13:23;17.73;;;4.13;;
56399;SDS011;42298;53.638;9.876;2023-05-17T05:15:48;17.73;;;4.47;;
56399;SDS011;42298;53.638;9.876;2023-05-17T05:18:13;18.20;;;4.43;;
56399;SDS011;42298;53.638;9.876;2023-05-17T05:20:40;18.80;;;4.00;;
56399;SDS011;42298;53.638;9.876;2023-05-17T05:23:05;18.33;;;4.03;;
56399;SDS011;42298;53.638;9.876;2023-05-17T05:25:31;14.63;;;4.00;;
56399;SDS011;42298;53.638;9.876;2023-05-17T05:27:58;17.93;;;3.73;;
56399;SDS011;42298;53.638;9.876;2023-05-17T05:30:23;19.63;;;4.20;;
56399;SDS011;42298;53.638;9.876;2023-05-17T05:32:49;18.17;;;3.73;;
56399;SDS011;42298;53.638;9.876;2023-05-17T05:35:15;18.50;;;4.07;;
56399;SDS011;42298;53.638;9.876;2023-05-17T05:37:44;15.57;;;3.37;;
56399;SDS011;42298;53.638;9.876;2023-05-17T05:40:10;17.40;;;3.50;;
56399;SDS011;42298;53.638;9.876;2023-05-17T05:42:36;13.20;;;3.47;;
56399;SDS011;42298;53.638;9.876;2023-05-17T05:45:02;12.93;;;3.37;;
56399;SDS011;42298;53.638;9.876;2023-05-17T05:47:27;14.43;;;3.57;;
56399;SDS011;42298;53.638;9.876;2023-05-17T05:49:52;11.60;;;2.90;;
56399;SDS011;42298;53.638;9.876;2023-05-17T05:52:19;13.13;;;3.33;;
56399;SDS011;42298;53.638;9.876;2023-05-17T05:54:45;13.50;;;3.60;;
56399;SDS011;42298;53.638;9.876;2023-05-17T05:57:10;13.50;;;3.47;;
56399;SDS011;42298;53.638;9.876;2023-05-17T05:59:35;15.80;;;3.58;;
56399;SDS011;42298;53.638;9.876;2023-05-17T06:02:01;14.32;;;3.28;;
56399;SDS011;42298;53.638;9.876;2023-05-17T06:04:26;16.33;;;3.13;;
56399;SDS011;42298;53.638;9.876;2023-05-17T06:06:53;13.80;;;3.00;;
56399;SDS011;42298;53.638;9.876;2023-05-17T06:09:18;10.95;;;2.85;;
56399;SDS011;42298;53.638;9.876;2023-05-17T06:11:43;15.13;;;3.08;;
56399;SDS011;42298;53.638;9.876;2023-05-17T06:14:09;12.03;;;3.03;;
56399;SDS011;42298;53.638;9.876;2023-05-17T06:16:35;13.10;;;2.95;;
56399;SDS011;42298;53.638;9.876;2023-05-17T06:19:00;14.02;;;3.40;;
56399;SDS011;42298;53.638;9.876;2023-05-17T06:21:25;11.68;;;2.70;;
56399;SDS011;42298;53.638;9.876;2023-05-17T06:23:51;14.20;;;3.30;;
56399;SDS011;42298;53.638;9.876;2023-05-17T06:26:16;11.70;;;2.80;;
56399;SDS011;42298;53.638;9.876;2023-05-17T06:28:42;13.63;;;2.92;;
56399;SDS011;42298;53.638;9.876;2023-05-17T06:31:07;13.95;;;3.60;;
56399;SDS011;42298;53.638;9.876;2023-05-17T06:33:32;15.93;;;2.83;;
56399;SDS011;42298;53.638;9.876;2023-05-17T06:35:57;14.50;;;3.25;;
56399;SDS011;42298;53.638;9.876;2023-05-17T06:38:23;10.27;;;3.40;;
56399;SDS011;42298;53.638;9.876;2023-05-17T06:40:54;13.25;;;3.08;;
56399;SDS011;42298;53.638;9.876;2023-05-17T06:43:21;13.27;;;3.33;;
56399;SDS011;42298;53.638;9.876;2023-05-17T06:45:47;12.57;;;2.70;;
56399;SDS011;42298;53.638;9.876;2023-05-17T06:48:14;11.63;;;2.90;;
56399;SDS011;42298;53.638;9.876;2023-05-17T06:50:40;10.77;;;2.93;;
56399;SDS011;42298;53.638;9.876;2023-05-17T06:53:06;9.43;;;2.50;;
56399;SDS011;42298;53.638;9.876;2023-05-17T06:55:33;11.82;;;3.15;;
56399;SDS011;42298;53.638;9.876;2023-05-17T06:57:58;10.82;;;3.03;;
56399;SDS011;42298;53.638;9.876;2023-05-17T07:00:26;13.40;;;3.13;;
56399;SDS011;42298;53.638;9.876;2023-05-17T07:02:53;13.23;;;3.03;;
56399;SDS011;42298;53.638;9.876;2023-05-17T07:05:19;13.95;;;3.17;;
56399;SDS011;42298;53.638;9.876;2023-05-17T07:07:46;9.98;;;3.33;;
56399;SDS011;42298;53.638;9.876;2023-05-17T07:10:11;15.00;;;2.85;;
56399;SDS011;42298;53.638;9.876;2023-05-17T07:12:38;11.45;;;3.10;;
56399;SDS011;42298;53.638;9.876;2023-05-17T07:15:03;13.53;;;3.17;;
56399;SDS011;42298;53.638;9.876;2023-05-17T07:17:29;12.13;;;2.97;;
56399;SDS011;42298;53.638;9.876;2023-05-17T07:19:54;12.57;;;3.08;;
56399;SDS011;42298;53.638;9.876;2023-05-17T07:22:19;15.75;;;2.88;;
56399;SDS011;42298;53.638;9.876;2023-05-17T07:24:45;10.50;;;2.75;;
56399;SDS011;42298;53.638;9.876;2023-05-17T07:27:10;14.70;;;3.47;;
56399;SDS011;42298;53.638;9.876;2023-05-17T07:29:36;13.23;;;3.28;;
56399;SDS011;42298;53.638;9.876;2023-05-17T07:32:02;12.43;;;3.40;;
56399;SDS011;42298;53.638;9.876;2023-05-17T07:34:29;15.70;;;3.70;;
56399;SDS011;42298;53.638;9.876;2023-05-17T07:36:57;14.20;;;2.83;;
56399;SDS011;42298;53.638;9.876;2023-05-17T07:39:23;11.00;;;2.75;;
56399;SDS011;42298;53.638;9.876;2023-05-17T07:41:48;11.18;;;3.03;;
56399;SDS011;42298;53.638;9.876;2023-05-17T07:44:13;13.93;;;3.13;;
56399;SDS011;42298;53.638;9.876;2023-05-17T07:46:39;12.93;;;2.70;;
56399;SDS011;42298;53.638;9.876;2023-05-17T07:49:05;13.77;;;2.90;;
56399;SDS011;42298;53.638;9.876;2023-05-17T07:51:31;9.15;;;2.38;;
56399;SDS011;42298;53.638;9.876;2023-05-17T07:53:56;12.88;;;2.88;;
56399;SDS011;42298;53.638;9.876;2023-05-17T07:56:21;10.50;;;2.65;;
56399;SDS011;42298;53.638;9.876;2023-05-17T07:58:47;12.80;;;2.75;;
56399;SDS011;42298;53.638;9.876;2023-05-17T08:01:12;11.73;;;3.15;;
56399;SDS011;42298;53.638;9.876;2023-05-17T08:03:38;12.85;;;3.00;;
56399;SDS011;42298;53.638;9.876;2023-05-17T08:06:04;9.10;;;2.63;;
56399;SDS011;42298;53.638;9.876;2023-05-17T08:08:29;11.88;;;3.05;;
56399;SDS011;42298;53.638;9.876;2023-05-17T08:10:54;10.23;;;3.05;;
56399;SDS011;42298;53.638;9.876;2023-05-17T08:13:22;11.48;;;3.20;;
56399;SDS011;42298;53.638;9.876;2023-05-17T08:15:47;12.98;;;3.33;;
56399;SDS011;42298;53.638;9.876;2023-05-17T08:18:14;13.07;;;3.00;;
56399;SDS011;42298;53.638;9.876;2023-05-17T08:20:39;11.13;;;2.70;;
56399;SDS011;42298;53.638;9.876;2023-05-17T08:23:07;13.30;;;3.25;;
56399;SDS011;42298;53.638;9.876;2023-05-17T08:25:32;10.90;;;2.63;;
56399;SDS011;42298;53.638;9.876;2023-05-17T08:27:59;15.75;;;3.08;;
56399;SDS011;42298;53.638;9.876;2023-05-17T08:30:25;13.85;;;3.15;;
56399;SDS011;42298;53.638;9.876;2023-05-17T08:32:51;11.38;;;2.90;;
56399;SDS011;42298;53.638;9.876;2023-05-17T08:35:16;9.35;;;2.80;;
56399;SDS011;42298;53.638;9.876;2023-05-17T08:37:45;12.93;;;3.13;;
56399;SDS011;42298;53.638;9.876;2023-05-17T08:40:10;7.97;;;2.60;;
56399;SDS011;42298;53.638;9.876;2023-05-17T08:42:36;11.18;;;3.08;;
56399;SDS011;42298;53.638;9.876;2023-05-17T08:45:03;14.77;;;3.55;;
56399;SDS011;42298;53.638;9.876;2023-05-17T08:47:33;11.23;;;2.70;;
56399;SDS011;42298;53.638;9.876;2023-05-17T08:50:02;12.15;;;2.88;;
56399;SDS011;42298;53.638;9.876;2023-05-17T08:52:31;11.35;;;3.45;;
56399;SDS011;42298;53.638;9.876;2023-05-17T08:54:59;17.15;;;3.28;;
56399;SDS011;42298;53.638;9.876;2023-05-17T08:57:32;10.45;;;2.90;;
56399;SDS011;42298;53.638;9.876;2023-05-17T09:00:00;10.13;;;2.95;;
56399;SDS011;42298;53.638;9.876;2023-05-17T09:02:27;9.45;;;2.90;;
56399;SDS011;42298;53.638;9.876;2023-05-17T09:04:54;9.60;;;2.88;;
56399;SDS011;42298;53.638;9.876;2023-05-17T09:07:26;14.85;;;3.53;;
56399;SDS011;42298;53.638;9.876;2023-05-17T09:09:52;12.15;;;2.90;;
56399;SDS011;42298;53.638;9.876;2023-05-17T09:12:18;13.07;;;3.20;;
56399;SDS011;42298;53.638;9.876;2023-05-17T09:14:46;12.23;;;3.10;;
56399;SDS011;42298;53.638;9.876;2023-05-17T09:17:13;11.98;;;3.50;;
56399;SDS011;42298;53.638;9.876;2023-05-17T09:19:44;14.43;;;3.30;;
56399;SDS011;42298;53.638;9.876;2023-05-17T09:22:13;14.60;;;3.28;;
56399;SDS011;42298;53.638;9.876;2023-05-17T09:24:43;11.15;;;2.88;;
56399;SDS011;42298;53.638;9.876;2023-05-17T09:27:13;12.85;;;3.17;;
56399;SDS011;42298;53.638;9.876;2023-05-17T09:29:42;13.35;;;3.15;;
56399;SDS011;42298;53.638;9.876;2023-05-17T09:34:39;11.07;;;3.00;;
56399;SDS011;42298;53.638;9.876;2023-05-17T09:37:05;12.02;;;2.97;;
56399;SDS011;42298;53.638;9.876;2023-05-17T09:39:36;13.57;;;3.30;;
56399;SDS011;42298;53.638;9.876;2023-05-17T09:42:02;12.80;;;2.95;;
56399;SDS011;42298;53.638;9.876;2023-05-17T09:44:29;14.05;;;2.88;;
56399;SDS011;42298;53.638;9.876;2023-05-17T09:46:56;12.60;;;3.00;;
56399;SDS011;42298;53.638;9.876;2023-05-17T09:49:25;11.00;;;3.03;;
56399;SDS011;42298;53.638;9.876;2023-05-17T09:51:51;10.40;;;2.90;;
56399;SDS011;42298;53.638;9.876;2023-05-17T09:54:17;13.25;;;3.05;;
56399;SDS011;42298;53.638;9.876;2023-05-17T09:56:43;10.45;;;2.90;;
56399;SDS011;42298;53.638;9.876;2023-05-17T09:59:15;11.18;;;2.97;;
56399;SDS011;42298;53.638;9.876;2023-05-17T10:01:40;11.02;;;3.10;;
56399;SDS011;42298;53.638;9.876;2023-05-17T10:04:10;10.60;;;2.72;;
56399;SDS011;42298;53.638;9.876;2023-05-17T10:06:40;12.55;;;2.78;;
56399;SDS011;42298;53.638;9.876;2023-05-17T10:09:09;12.15;;;3.15;;
56399;SDS011;42298;53.638;9.876;2023-05-17T10:11:38;8.15;;;2.90;;
56399;SDS011;42298;53.638;9.876;2023-05-17T10:16:46;8.48;;;2.22;;
56399;SDS011;42298;53.638;9.876;2023-05-17T10:19:13;12.68;;;2.50;;
56399;SDS011;42298;53.638;9.876;2023-05-17T10:21:39;11.38;;;2.80;;
56399;SDS011;42298;53.638;9.876;2023-05-17T10:24:05;8.70;;;2.33;;
56399;SDS011;42298;53.638;9.876;2023-05-17T10:26:31;11.70;;;3.03;;
56399;SDS011;42298;53.638;9.876;2023-05-17T10:28:58;10.25;;;2.53;;
56399;SDS011;42298;53.638;9.876;2023-05-17T10:31:29;9.82;;;2.40;;
56399;SDS011;42298;53.638;9.876;2023-05-17T10:34:00;7.82;;;2.40;;
56399;SDS011;42298;53.638;9.876;2023-05-17T10:36:29;9.77;;;2.75;;
56399;SDS011;42298;53.638;9.876;2023-05-17T10:38:55;9.98;;;2.63;;
56399;SDS011;42298;53.638;9.876;2023-05-17T10:41:21;12.40;;;2.58;;
56399;SDS011;42298;53.638;9.876;2023-05-17T10:43:50;10.45;;;2.63;;
56399;SDS011;42298;53.638;9.876;2023-05-17T10:46:18;11.57;;;2.58;;
56399;SDS011;42298;53.638;9.876;2023-05-17T10:48:53;9.77;;;2.90;;
56399;SDS011;42298;53.638;9.876;2023-05-17T10:51:21;9.25;;;2.35;;
56399;SDS011;42298;53.638;9.876;2023-05-17T10:54:09;12.50;;;2.83;;
56399;SDS011;42298;53.638;9.876;2023-05-17T10:56:38;9.50;;;2.50;;
56399;SDS011;42298;53.638;9.876;2023-05-17T10:59:22;10.23;;;2.25;;
56399;SDS011;42298;53.638;9.876;2023-05-17T11:01:49;10.30;;;2.40;;
56399;SDS011;42298;53.638;9.876;2023-05-17T11:04:22;9.55;;;2.45;;
56399;SDS011;42298;53.638;9.876;2023-05-17T11:06:52;10.88;;;2.55;;
56399;SDS011;42298;53.638;9.876;2023-05-17T11:09:36;7.40;;;2.33;;
56399;SDS011;42298;53.638;9.876;2023-05-17T11:14:58;8.88;;;2.20;;
56399;SDS011;42298;53.638;9.876;2023-05-17T11:17:24;9.38;;;2.20;;
56399;SDS011;42298;53.638;9.876;2023-05-17T11:22:23;9.13;;;2.22;;
56399;SDS011;42298;53.638;9.876;2023-05-17T11:24:55;9.45;;;2.60;;
56399;SDS011;42298;53.638;9.876;2023-05-17T11:27:21;12.10;;;2.92;;
56399;SDS011;42298;53.638;9.876;2023-05-17T11:29:54;8.27;;;2.42;;
56399;SDS011;42298;53.638;9.876;2023-05-17T11:32:27;8.95;;;2.10;;
56399;SDS011;42298;53.638;9.876;2023-05-17T11:34:53;8.20;;;2.40;;
56399;SDS011;42298;53.638;9.876;2023-05-17T11:37:27;7.45;;;2.30;;
56399;SDS011;42298;53.638;9.876;2023-05-17T11:40:04;9.98;;;2.33;;
56399;SDS011;42298;53.638;9.876;2023-05-17T11:42:32;5.53;;;2.03;;
56399;SDS011;42298;53.638;9.876;2023-05-17T11:45:00;9.27;;;2.20;;
56399;SDS011;42298;53.638;9.876;2023-05-17T11:47:26;8.40;;;2.08;;
56399;SDS011;42298;53.638;9.876;2023-05-17T11:49:55;5.28;;;2.10;;
56399;SDS011;42298;53.638;9.876;2023-05-17T11:52:26;6.20;;;2.00;;
56399;SDS011;42298;53.638;9.876;2023-05-17T11:54:53;9.32;;;2.15;;
56399;SDS011;42298;53.638;9.876;2023-05-17T11:57:18;10.65;;;1.85;;
56399;SDS011;42298;53.638;9.876;2023-05-17T11:59:46;10.70;;;2.70;;
56399;SDS011;42298;53.638;9.876;2023-05-17T12:02:30;11.00;;;2.90;;
56399;SDS011;42298;53.638;9.876;2023-05-17T12:04:56;11.32;;;2.30;;
56399;SDS011;42298;53.638;9.876;2023-05-17T12:07:22;13.23;;;2.75;;
56399;SDS011;42298;53.638;9.876;2023-05-17T12:09:49;11.68;;;3.30;;
56399;SDS011;42298;53.638;9.876;2023-05-17T12:12:15;13.30;;;3.53;;
56399;SDS011;42298;53.638;9.876;2023-05-17T12:14:43;11.10;;;2.50;;
56399;SDS011;42298;53.638;9.876;2023-05-17T12:17:09;8.63;;;2.58;;
56399;SDS011;42298;53.638;9.876;2023-05-17T12:19:41;10.68;;;3.00;;
56399;SDS011;42298;53.638;9.876;2023-05-17T12:22:07;8.60;;;2.53;;
56399;SDS011;42298;53.638;9.876;2023-05-17T12:24:40;12.32;;;2.75;;
56399;SDS011;42298;53.638;9.876;2023-05-17T12:27:07;8.40;;;2.25;;
56399;SDS011;42298;53.638;9.876;2023-05-17T12:29:33;10.68;;;2.30;;
56399;SDS011;42298;53.638;9.876;2023-05-17T12:31:59;11.82;;;2.78;;
56399;SDS011;42298;53.638;9.876;2023-05-17T12:34:26;10.30;;;2.42;;
56399;SDS011;42298;53.638;9.876;2023-05-17T12:36:53;10.80;;;2.38;;
56399;SDS011;42298;53.638;9.876;2023-05-17T12:39:21;9.93;;;2.50;;
56399;SDS011;42298;53.638;9.876;2023-05-17T12:41:48;7.28;;;2.00;;
56399;SDS011;42298;53.638;9.876;2023-05-17T12:44:15;9.90;;;2.17;;
56399;SDS011;42298;53.638;9.876;2023-05-17T12:46:44;8.60;;;2.28;;
56399;SDS011;42298;53.638;9.876;2023-05-17T12:49:17;7.75;;;2.50;;
56399;SDS011;42298;53.638;9.876;2023-05-17T12:51:44;8.13;;;2.30;;
56399;SDS011;42298;53.638;9.876;2023-05-17T12:54:11;11.32;;;2.42;;
56399;SDS011;42298;53.638;9.876;2023-05-17T12:56:40;9.98;;;2.35;;
56399;SDS011;42298;53.638;9.876;2023-05-17T13:01:43;8.88;;;2.60;;
56399;SDS011;42298;53.638;9.876;2023-05-17T13:04:10;11.70;;;2.58;;
56399;SDS011;42298;53.638;9.876;2023-05-17T13:06:46;8.35;;;2.05;;
56399;SDS011;42298;53.638;9.876;2023-05-17T13:09:22;12.20;;;2.80;;
56399;SDS011;42298;53.638;9.876;2023-05-17T13:11:49;4.95;;;1.70;;
56399;SDS011;42298;53.638;9.876;2023-05-17T13:14:31;10.20;;;2.50;;
56399;SDS011;42298;53.638;9.876;2023-05-17T13:16:59;6.68;;;2.28;;
56399;SDS011;42298;53.638;9.876;2023-05-17T13:19:25;8.10;;;2.22;;
56399;SDS011;42298;53.638;9.876;2023-05-17T13:21:51;11.85;;;2.15;;
56399;SDS011;42298;53.638;9.876;2023-05-17T13:24:16;8.07;;;2.17;;
56399;SDS011;42298;53.638;9.876;2023-05-17T13:26:41;6.97;;;2.10;;
56399;SDS011;42298;53.638;9.876;2023-05-17T13:29:07;7.10;;;2.13;;
56399;SDS011;42298;53.638;9.876;2023-05-17T13:31:32;10.98;;;3.00;;
56399;SDS011;42298;53.638;9.876;2023-05-17T13:33:57;11.40;;;2.70;;
56399;SDS011;42298;53.638;9.876;2023-05-17T13:36:22;11.27;;;2.55;;
56399;SDS011;42298;53.638;9.876;2023-05-17T13:38:48;13.38;;;2.92;;
56399;SDS011;42298;53.638;9.876;2023-05-17T13:41:13;9.95;;;2.75;;
56399;SDS011;42298;53.638;9.876;2023-05-17T13:43:39;11.95;;;2.97;;
56399;SDS011;42298;53.638;9.876;2023-05-17T13:46:05;11.32;;;2.80;;
56399;SDS011;42298;53.638;9.876;2023-05-17T13:48:30;14.13;;;2.97;;
56399;SDS011;42298;53.638;9.876;2023-05-17T13:50:55;13.38;;;2.75;;
56399;SDS011;42298;53.638;9.876;2023-05-17T13:53:20;11.20;;;2.58;;
56399;SDS011;42298;53.638;9.876;2023-05-17T13:55:46;10.45;;;2.80;;
56399;SDS011;42298;53.638;9.876;2023-05-17T13:58:11;8.52;;;2.83;;
56399;SDS011;42298;53.638;9.876;2023-05-17T14:00:37;10.13;;;2.70;;
56399;SDS011;42298;53.638;9.876;2023-05-17T14:03:07;12.13;;;3.03;;
56399;SDS011;42298;53.638;9.876;2023-05-17T14:05:33;8.18;;;2.53;;
56399;SDS011;42298;53.638;9.876;2023-05-17T14:08:00;12.48;;;2.60;;
56399;SDS011;42298;53.638;9.876;2023-05-17T14:10:26;11.52;;;3.10;;
56399;SDS011;42298;53.638;9.876;2023-05-17T14:12:51;12.77;;;2.88;;
56399;SDS011;42298;53.638;9.876;2023-05-17T14:15:16;15.02;;;2.67;;
56399;SDS011;42298;53.638;9.876;2023-05-17T14:17:42;12.75;;;2.80;;
56399;SDS011;42298;53.638;9.876;2023-05-17T14:20:07;9.57;;;2.60;;
56399;SDS011;42298;53.638;9.876;2023-05-17T14:22:33;10.82;;;2.70;;
56399;SDS011;42298;53.638;9.876;2023-05-17T14:24:58;8.85;;;2.22;;
56399;SDS011;42298;53.638;9.876;2023-05-17T14:27:23;9.27;;;2.40;;
56399;SDS011;42298;53.638;9.876;2023-05-17T14:29:50;7.78;;;2.60;;
56399;SDS011;42298;53.638;9.876;2023-05-17T14:32:15;9.73;;;2.67;;
56399;SDS011;42298;53.638;9.876;2023-05-17T14:34:42;12.70;;;3.08;;
56399;SDS011;42298;53.638;9.876;2023-05-17T14:37:07;11.52;;;2.65;;
56399;SDS011;42298;53.638;9.876;2023-05-17T14:39:32;11.30;;;2.78;;
56399;SDS011;42298;53.638;9.876;2023-05-17T14:41:58;8.32;;;2.65;;
56399;SDS011;42298;53.638;9.876;2023-05-17T14:44:23;8.52;;;2.47;;
56399;SDS011;42298;53.638;9.876;2023-05-17T14:46:48;10.38;;;2.58;;
56399;SDS011;42298;53.638;9.876;2023-05-17T14:49:14;9.57;;;2.83;;
56399;SDS011;42298;53.638;9.876;2023-05-17T14:51:39;13.30;;;3.13;;
56399;SDS011;42298;53.638;9.876;2023-05-17T14:54:05;13.38;;;2.75;;
56399;SDS011;42298;53.638;9.876;2023-05-17T14:56:30;7.45;;;2.38;;